sensor_id;sensor_type;location;lat;lon;timestamp;temperature;humidity
18777;DHT22;9517;51.174;4.160;2024-03-02T00:00:52;6.70;99.90
18777;DHT22;9517;51.174;4.160;2024-03-02T00:03:19;6.70;99.90
18777;DHT22;9517;51.174;4.160;2024-03-02T00:05:50;6.70;99.90
18777;DHT22;9517;51.174;4.160;2024-03-02T00:08:23;6.80;99.90
18777;DHT22;9517;51.174;4.160;2024-03-02T00:10:57;6.90;99.90
18777;DHT22;9517;51.174;4.160;2024-03-02T00:13:25;6.90;99.90
18777;DHT22;9517;51.174;4.160;2024-03-02T00:15:53;6.80;99.90
18777;DHT22;9517;51.174;4.160;2024-03-02T00:18:23;6.70;99.90
18777;DHT22;9517;51.174;4.160;2024-03-02T00:20:53;6.80;99.90
18777;DHT22;9517;51.174;4.160;2024-03-02T00:23:21;6.80;99.90
18777;DHT22;9517;51.174;4.160;2024-03-02T00:25:49;6.70;99.90
18777;DHT22;9517;51.174;4.160;2024-03-02T00:28:22;6.80;99.90
18777;DHT22;9517;51.174;4.160;2024-03-02T00:30:58;6.80;99.90
18777;DHT22;9517;51.174;4.160;2024-03-02T00:33:27;7.00;99.90
18777;DHT22;9517;51.174;4.160;2024-03-02T00:35:56;7.00;99.90
18777;DHT22;9517;51.174;4.160;2024-03-02T00:38:23;6.90;99.90
18777;DHT22;9517;51.174;4.160;2024-03-02T00:40:50;6.80;99.90
18777;DHT22;9517;51.174;4.160;2024-03-02T00:43:41;6.90;99.90
18777;DHT22;9517;51.174;4.160;2024-03-02T00:46:10;6.90;99.90
18777;DHT22;9517;51.174;4.160;2024-03-02T00:48:38;7.00;99.90
18777;DHT22;9517;51.174;4.160;2024-03-02T00:51:05;7.00;99.90
18777;DHT22;9517;51.174;4.160;2024-03-02T00:53:32;6.90;99.90
18777;DHT22;9517;51.174;4.160;2024-03-02T00:56:00;6.80;99.90
18777;DHT22;9517;51.174;4.160;2024-03-02T00:58:27;6.70;99.90
18777;DHT22;9517;51.174;4.160;2024-03-02T01:00:56;6.70;99.90
18777;DHT22;9517;51.174;4.160;2024-03-02T01:03:23;6.70;99.90
18777;DHT22;9517;51.174;4.160;2024-03-02T01:05:50;6.80;99.90
18777;DHT22;9517;51.174;4.160;2024-03-02T01:08:17;6.80;99.90
18777;DHT22;9517;51.174;4.160;2024-03-02T01:10:44;6.90;99.90
18777;DHT22;9517;51.174;4.160;2024-03-02T01:13:11;6.80;99.90
18777;DHT22;9517;51.174;4.160;2024-03-02T01:15:38;6.90;99.90
18777;DHT22;9517;51.174;4.160;2024-03-02T01:18:09;7.00;99.90
18777;DHT22;9517;51.174;4.160;2024-03-02T01:20:36;7.00;99.90
18777;DHT22;9517;51.174;4.160;2024-03-02T01:23:04;7.00;99.90
18777;DHT22;9517;51.174;4.160;2024-03-02T01:25:31;7.00;99.90
18777;DHT22;9517;51.174;4.160;2024-03-02T01:27:58;7.10;99.90
18777;DHT22;9517;51.174;4.160;2024-03-02T01:30:25;7.10;99.90
18777;DHT22;9517;51.174;4.160;2024-03-02T01:32:52;7.00;99.90
18777;DHT22;9517;51.174;4.160;2024-03-02T01:35:20;7.10;99.90
18777;DHT22;9517;51.174;4.160;2024-03-02T01:37:47;7.10;99.90
18777;DHT22;9517;51.174;4.160;2024-03-02T01:40:14;7.00;99.90
18777;DHT22;9517;51.174;4.160;2024-03-02T01:42:42;7.20;99.90
18777;DHT22;9517;51.174;4.160;2024-03-02T01:45:10;7.30;99.90
18777;DHT22;9517;51.174;4.160;2024-03-02T01:47:37;7.30;99.90
18777;DHT22;9517;51.174;4.160;2024-03-02T01:50:04;7.20;99.90
18777;DHT22;9517;51.174;4.160;2024-03-02T01:52:33;7.10;99.90
18777;DHT22;9517;51.174;4.160;2024-03-02T01:55:00;7.00;99.90
18777;DHT22;9517;51.174;4.160;2024-03-02T01:57:27;7.00;99.90
18777;DHT22;9517;51.174;4.160;2024-03-02T01:59:54;7.20;99.90
18777;DHT22;9517;51.174;4.160;2024-03-02T02:02:21;7.10;99.90
18777;DHT22;9517;51.174;4.160;2024-03-02T02:04:48;7.10;99.90
18777;DHT22;9517;51.174;4.160;2024-03-02T02:07:15;7.00;99.90
18777;DHT22;9517;51.174;4.160;2024-03-02T02:09:44;6.90;99.90
18777;DHT22;9517;51.174;4.160;2024-03-02T02:12:11;6.80;99.90
18777;DHT22;9517;51.174;4.160;2024-03-02T02:14:38;6.80;99.90
18777;DHT22;9517;51.174;4.160;2024-03-02T02:17:06;6.90;99.90
18777;DHT22;9517;51.174;4.160;2024-03-02T02:19:33;6.90;99.90
18777;DHT22;9517;51.174;4.160;2024-03-02T02:22:02;6.90;99.90
18777;DHT22;9517;51.174;4.160;2024-03-02T02:24:29;6.80;99.90
18777;DHT22;9517;51.174;4.160;2024-03-02T02:26:56;6.80;99.90
18777;DHT22;9517;51.174;4.160;2024-03-02T02:29:23;6.70;99.90
18777;DHT22;9517;51.174;4.160;2024-03-02T02:31:50;6.70;99.90
18777;DHT22;9517;51.174;4.160;2024-03-02T02:34:18;6.80;99.90
18777;DHT22;9517;51.174;4.160;2024-03-02T02:36:45;6.80;99.90
18777;DHT22;9517;51.174;4.160;2024-03-02T02:39:15;6.90;99.90
18777;DHT22;9517;51.174;4.160;2024-03-02T02:41:43;6.90;99.90
18777;DHT22;9517;51.174;4.160;2024-03-02T02:44:10;6.80;99.90
18777;DHT22;9517;51.174;4.160;2024-03-02T02:46:38;6.80;99.90
18777;DHT22;9517;51.174;4.160;2024-03-02T02:49:05;6.80;99.90
18777;DHT22;9517;51.174;4.160;2024-03-02T02:51:32;6.80;99.90
18777;DHT22;9517;51.174;4.160;2024-03-02T02:53:59;6.70;99.90
18777;DHT22;9517;51.174;4.160;2024-03-02T02:56:28;6.90;99.90
18777;DHT22;9517;51.174;4.160;2024-03-02T02:58:55;6.80;99.90
18777;DHT22;9517;51.174;4.160;2024-03-02T03:01:22;6.60;99.90
18777;DHT22;9517;51.174;4.160;2024-03-02T03:03:49;6.60;99.90
18777;DHT22;9517;51.174;4.160;2024-03-02T03:06:16;6.50;99.90
18777;DHT22;9517;51.174;4.160;2024-03-02T03:08:43;6.50;99.90
18777;DHT22;9517;51.174;4.160;2024-03-02T03:11:10;6.70;99.90
18777;DHT22;9517;51.174;4.160;2024-03-02T03:13:39;6.60;99.90
18777;DHT22;9517;51.174;4.160;2024-03-02T03:16:06;6.80;99.90
18777;DHT22;9517;51.174;4.160;2024-03-02T03:18:33;6.90;99.90
18777;DHT22;9517;51.174;4.160;2024-03-02T03:21:00;7.00;99.90
18777;DHT22;9517;51.174;4.160;2024-03-02T03:23:27;7.00;99.90
18777;DHT22;9517;51.174;4.160;2024-03-02T03:25:54;7.00;99.90
18777;DHT22;9517;51.174;4.160;2024-03-02T03:28:21;7.00;99.90
18777;DHT22;9517;51.174;4.160;2024-03-02T03:30:50;7.00;99.90
18777;DHT22;9517;51.174;4.160;2024-03-02T03:33:17;7.00;99.90
18777;DHT22;9517;51.174;4.160;2024-03-02T03:35:44;7.10;99.90
18777;DHT22;9517;51.174;4.160;2024-03-02T03:38:11;7.00;99.90
18777;DHT22;9517;51.174;4.160;2024-03-02T03:40:38;7.10;99.90
18777;DHT22;9517;51.174;4.160;2024-03-02T03:43:05;7.00;99.90
18777;DHT22;9517;51.174;4.160;2024-03-02T03:45:33;7.00;99.90
18777;DHT22;9517;51.174;4.160;2024-03-02T03:48:02;7.20;99.90
18777;DHT22;9517;51.174;4.160;2024-03-02T03:50:29;7.20;99.90
18777;DHT22;9517;51.174;4.160;2024-03-02T03:52:56;7.20;99.90
18777;DHT22;9517;51.174;4.160;2024-03-02T03:55:23;7.20;99.90
18777;DHT22;9517;51.174;4.160;2024-03-02T03:57:50;7.20;99.90
18777;DHT22;9517;51.174;4.160;2024-03-02T04:00:17;7.10;99.90
18777;DHT22;9517;51.174;4.160;2024-03-02T04:02:44;7.10;99.90
18777;DHT22;9517;51.174;4.160;2024-03-02T04:05:13;7.20;99.90
18777;DHT22;9517;51.174;4.160;2024-03-02T04:07:40;7.20;99.90
18777;DHT22;9517;51.174;4.160;2024-03-02T04:10:09;7.20;99.90
18777;DHT22;9517;51.174;4.160;2024-03-02T04:12:36;7.20;99.90
18777;DHT22;9517;51.174;4.160;2024-03-02T04:15:05;7.30;99.90
18777;DHT22;9517;51.174;4.160;2024-03-02T04:17:34;7.20;99.90
18777;DHT22;9517;51.174;4.160;2024-03-02T04:20:02;7.20;99.90
18777;DHT22;9517;51.174;4.160;2024-03-02T04:22:33;7.10;99.90
18777;DHT22;9517;51.174;4.160;2024-03-02T04:25:01;7.10;99.90
18777;DHT22;9517;51.174;4.160;2024-03-02T04:27:30;7.20;99.90
18777;DHT22;9517;51.174;4.160;2024-03-02T04:29:58;7.10;99.90
18777;DHT22;9517;51.174;4.160;2024-03-02T04:32:27;7.20;99.90
18777;DHT22;9517;51.174;4.160;2024-03-02T04:34:54;7.30;99.90
18777;DHT22;9517;51.174;4.160;2024-03-02T04:37:21;7.20;99.90
18777;DHT22;9517;51.174;4.160;2024-03-02T04:39:49;7.30;99.90
18777;DHT22;9517;51.174;4.160;2024-03-02T04:42:16;7.20;99.90
18777;DHT22;9517;51.174;4.160;2024-03-02T04:44:43;7.20;99.90
18777;DHT22;9517;51.174;4.160;2024-03-02T04:47:10;7.20;99.90
18777;DHT22;9517;51.174;4.160;2024-03-02T04:49:38;7.10;99.90
18777;DHT22;9517;51.174;4.160;2024-03-02T04:52:05;7.00;99.90
18777;DHT22;9517;51.174;4.160;2024-03-02T04:54:32;6.80;99.90
18777;DHT22;9517;51.174;4.160;2024-03-02T04:57:20;6.80;99.90
18777;DHT22;9517;51.174;4.160;2024-03-02T04:59:47;6.60;99.90
18777;DHT22;9517;51.174;4.160;2024-03-02T05:02:14;6.60;99.90
18777;DHT22;9517;51.174;4.160;2024-03-02T05:04:41;6.60;99.90
18777;DHT22;9517;51.174;4.160;2024-03-02T05:07:08;6.70;99.90
18777;DHT22;9517;51.174;4.160;2024-03-02T05:09:35;6.60;99.90
18777;DHT22;9517;51.174;4.160;2024-03-02T05:12:02;6.50;99.90
18777;DHT22;9517;51.174;4.160;2024-03-02T05:14:45;6.50;99.90
18777;DHT22;9517;51.174;4.160;2024-03-02T05:17:12;6.50;99.90
18777;DHT22;9517;51.174;4.160;2024-03-02T05:19:39;6.50;99.90
18777;DHT22;9517;51.174;4.160;2024-03-02T05:22:06;6.50;99.90
18777;DHT22;9517;51.174;4.160;2024-03-02T05:24:33;6.50;99.90
18777;DHT22;9517;51.174;4.160;2024-03-02T05:27:00;6.40;99.90
18777;DHT22;9517;51.174;4.160;2024-03-02T05:29:27;6.30;99.90
18777;DHT22;9517;51.174;4.160;2024-03-02T05:31:56;6.20;99.90
18777;DHT22;9517;51.174;4.160;2024-03-02T05:34:23;6.20;99.90
18777;DHT22;9517;51.174;4.160;2024-03-02T05:36:50;6.20;99.90
18777;DHT22;9517;51.174;4.160;2024-03-02T05:39:16;6.20;99.90
18777;DHT22;9517;51.174;4.160;2024-03-02T05:42:00;6.10;99.90
18777;DHT22;9517;51.174;4.160;2024-03-02T05:44:27;6.10;99.90
18777;DHT22;9517;51.174;4.160;2024-03-02T05:46:54;6.10;99.90
18777;DHT22;9517;51.174;4.160;2024-03-02T05:49:21;6.10;99.90
18777;DHT22;9517;51.174;4.160;2024-03-02T05:51:48;6.10;99.90
18777;DHT22;9517;51.174;4.160;2024-03-02T05:54:15;6.10;99.90
18777;DHT22;9517;51.174;4.160;2024-03-02T05:56:42;6.10;99.90
18777;DHT22;9517;51.174;4.160;2024-03-02T05:59:10;6.00;99.90
18777;DHT22;9517;51.174;4.160;2024-03-02T06:01:39;5.90;99.90
18777;DHT22;9517;51.174;4.160;2024-03-02T06:04:06;6.00;99.90
18777;DHT22;9517;51.174;4.160;2024-03-02T06:06:33;5.90;99.90
18777;DHT22;9517;51.174;4.160;2024-03-02T06:09:00;5.80;99.90
18777;DHT22;9517;51.174;4.160;2024-03-02T06:11:28;5.80;99.90
18777;DHT22;9517;51.174;4.160;2024-03-02T06:13:55;5.90;99.90
18777;DHT22;9517;51.174;4.160;2024-03-02T06:16:24;5.80;99.90
18777;DHT22;9517;51.174;4.160;2024-03-02T06:18:51;5.80;99.90
18777;DHT22;9517;51.174;4.160;2024-03-02T06:21:19;5.80;99.90
18777;DHT22;9517;51.174;4.160;2024-03-02T06:23:46;5.70;99.90
18777;DHT22;9517;51.174;4.160;2024-03-02T06:26:13;5.70;99.90
18777;DHT22;9517;51.174;4.160;2024-03-02T06:28:40;5.70;99.90
18777;DHT22;9517;51.174;4.160;2024-03-02T06:31:07;5.70;99.90
18777;DHT22;9517;51.174;4.160;2024-03-02T06:33:36;5.70;99.90
18777;DHT22;9517;51.174;4.160;2024-03-02T06:36:04;5.70;99.90
18777;DHT22;9517;51.174;4.160;2024-03-02T06:38:34;5.70;99.90
18777;DHT22;9517;51.174;4.160;2024-03-02T06:41:01;5.60;99.90
18777;DHT22;9517;51.174;4.160;2024-03-02T06:43:28;5.60;99.90
18777;DHT22;9517;51.174;4.160;2024-03-02T06:45:55;5.60;99.90
18777;DHT22;9517;51.174;4.160;2024-03-02T06:48:22;5.60;99.90
18777;DHT22;9517;51.174;4.160;2024-03-02T06:50:51;5.60;99.90
18777;DHT22;9517;51.174;4.160;2024-03-02T06:53:19;5.70;99.90
18777;DHT22;9517;51.174;4.160;2024-03-02T06:55:47;5.60;99.90
18777;DHT22;9517;51.174;4.160;2024-03-02T06:58:17;5.70;99.90
18777;DHT22;9517;51.174;4.160;2024-03-02T07:00:44;5.70;99.90
18777;DHT22;9517;51.174;4.160;2024-03-02T07:03:11;5.60;99.90
18777;DHT22;9517;51.174;4.160;2024-03-02T07:05:40;5.60;99.90
18777;DHT22;9517;51.174;4.160;2024-03-02T07:08:08;5.80;99.90
18777;DHT22;9517;51.174;4.160;2024-03-02T07:13:29;5.80;99.90
18777;DHT22;9517;51.174;4.160;2024-03-02T07:15:56;5.80;99.90
18777;DHT22;9517;51.174;4.160;2024-03-02T07:18:48;5.80;99.90
18777;DHT22;9517;51.174;4.160;2024-03-02T07:21:17;6.00;99.90
18777;DHT22;9517;51.174;4.160;2024-03-02T07:23:46;6.10;99.90
18777;DHT22;9517;51.174;4.160;2024-03-02T07:26:14;6.10;99.90
18777;DHT22;9517;51.174;4.160;2024-03-02T07:28:45;6.20;99.90
18777;DHT22;9517;51.174;4.160;2024-03-02T07:31:13;6.20;99.90
18777;DHT22;9517;51.174;4.160;2024-03-02T07:33:41;6.30;99.90
18777;DHT22;9517;51.174;4.160;2024-03-02T07:36:32;6.40;99.90
18777;DHT22;9517;51.174;4.160;2024-03-02T07:39:03;6.40;99.90
18777;DHT22;9517;51.174;4.160;2024-03-02T07:41:29;6.40;99.90
18777;DHT22;9517;51.174;4.160;2024-03-02T07:43:56;6.50;99.90
18777;DHT22;9517;51.174;4.160;2024-03-02T07:46:23;6.70;99.90
18777;DHT22;9517;51.174;4.160;2024-03-02T07:48:51;6.80;99.90
18777;DHT22;9517;51.174;4.160;2024-03-02T07:51:18;6.90;99.90
18777;DHT22;9517;51.174;4.160;2024-03-02T07:53:45;7.00;99.90
18777;DHT22;9517;51.174;4.160;2024-03-02T07:56:14;7.00;99.90
18777;DHT22;9517;51.174;4.160;2024-03-02T07:58:47;7.10;99.90
18777;DHT22;9517;51.174;4.160;2024-03-02T08:01:14;7.10;99.90
18777;DHT22;9517;51.174;4.160;2024-03-02T08:03:43;7.20;99.90
18777;DHT22;9517;51.174;4.160;2024-03-02T08:06:13;7.20;99.90
18777;DHT22;9517;51.174;4.160;2024-03-02T08:08:41;7.40;99.90
18777;DHT22;9517;51.174;4.160;2024-03-02T08:11:12;7.40;99.90
18777;DHT22;9517;51.174;4.160;2024-03-02T08:13:49;7.50;99.90
18777;DHT22;9517;51.174;4.160;2024-03-02T08:16:17;7.60;99.90
18777;DHT22;9517;51.174;4.160;2024-03-02T08:18:45;7.70;99.90
18777;DHT22;9517;51.174;4.160;2024-03-02T08:21:13;7.80;99.90
18777;DHT22;9517;51.174;4.160;2024-03-02T08:23:40;7.80;99.90
18777;DHT22;9517;51.174;4.160;2024-03-02T08:26:08;8.10;99.90
18777;DHT22;9517;51.174;4.160;2024-03-02T08:28:35;8.10;99.90
18777;DHT22;9517;51.174;4.160;2024-03-02T08:31:05;8.30;99.90
18777;DHT22;9517;51.174;4.160;2024-03-02T08:33:32;8.30;99.90
18777;DHT22;9517;51.174;4.160;2024-03-02T08:36:00;8.40;99.90
18777;DHT22;9517;51.174;4.160;2024-03-02T08:38:27;8.50;99.90
18777;DHT22;9517;51.174;4.160;2024-03-02T08:40:54;8.60;99.90
18777;DHT22;9517;51.174;4.160;2024-03-02T08:43:21;8.50;99.90
18777;DHT22;9517;51.174;4.160;2024-03-02T08:45:49;8.50;99.90
18777;DHT22;9517;51.174;4.160;2024-03-02T08:48:18;8.60;99.90
18777;DHT22;9517;51.174;4.160;2024-03-02T08:50:46;8.60;99.90
18777;DHT22;9517;51.174;4.160;2024-03-02T08:53:13;8.80;99.90
18777;DHT22;9517;51.174;4.160;2024-03-02T08:55:44;9.00;99.90
18777;DHT22;9517;51.174;4.160;2024-03-02T08:58:11;9.10;99.90
18777;DHT22;9517;51.174;4.160;2024-03-02T09:00:38;9.20;99.90
18777;DHT22;9517;51.174;4.160;2024-03-02T09:03:06;9.10;99.90
18777;DHT22;9517;51.174;4.160;2024-03-02T09:05:34;9.10;99.90
18777;DHT22;9517;51.174;4.160;2024-03-02T09:08:02;9.10;99.90
18777;DHT22;9517;51.174;4.160;2024-03-02T09:10:29;9.20;99.90
18777;DHT22;9517;51.174;4.160;2024-03-02T09:12:56;9.30;99.90
18777;DHT22;9517;51.174;4.160;2024-03-02T09:15:23;9.50;99.90
18777;DHT22;9517;51.174;4.160;2024-03-02T09:17:50;9.60;99.90
18777;DHT22;9517;51.174;4.160;2024-03-02T09:20:17;9.60;99.90
18777;DHT22;9517;51.174;4.160;2024-03-02T09:22:46;9.40;99.90
18777;DHT22;9517;51.174;4.160;2024-03-02T09:25:14;9.40;99.90
18777;DHT22;9517;51.174;4.160;2024-03-02T09:27:41;9.60;99.90
18777;DHT22;9517;51.174;4.160;2024-03-02T09:30:09;9.60;99.90
18777;DHT22;9517;51.174;4.160;2024-03-02T09:32:37;9.70;99.90
18777;DHT22;9517;51.174;4.160;2024-03-02T09:35:05;9.90;99.90
18777;DHT22;9517;51.174;4.160;2024-03-02T09:37:32;10.20;99.90
18777;DHT22;9517;51.174;4.160;2024-03-02T09:40:00;10.40;99.90
18777;DHT22;9517;51.174;4.160;2024-03-02T09:42:28;10.50;99.90
18777;DHT22;9517;51.174;4.160;2024-03-02T09:44:55;10.50;99.90
18777;DHT22;9517;51.174;4.160;2024-03-02T09:47:23;10.60;99.90
18777;DHT22;9517;51.174;4.160;2024-03-02T09:49:50;10.40;99.90
18777;DHT22;9517;51.174;4.160;2024-03-02T09:52:17;10.60;99.90
18777;DHT22;9517;51.174;4.160;2024-03-02T09:54:47;10.70;99.90
18777;DHT22;9517;51.174;4.160;2024-03-02T09:57:16;11.10;99.90
18777;DHT22;9517;51.174;4.160;2024-03-02T09:59:43;11.20;99.90
18777;DHT22;9517;51.174;4.160;2024-03-02T10:02:11;11.20;99.90
18777;DHT22;9517;51.174;4.160;2024-03-02T10:04:38;11.50;99.90
18777;DHT22;9517;51.174;4.160;2024-03-02T10:07:12;11.60;99.90
18777;DHT22;9517;51.174;4.160;2024-03-02T10:09:40;11.70;99.90
18777;DHT22;9517;51.174;4.160;2024-03-02T10:12:09;11.80;99.90
18777;DHT22;9517;51.174;4.160;2024-03-02T10:14:38;11.70;99.90
18777;DHT22;9517;51.174;4.160;2024-03-02T10:17:09;11.50;99.90
18777;DHT22;9517;51.174;4.160;2024-03-02T10:19:36;11.50;99.90
18777;DHT22;9517;51.174;4.160;2024-03-02T10:22:05;11.30;99.90
18777;DHT22;9517;51.174;4.160;2024-03-02T10:24:36;11.40;99.90
18777;DHT22;9517;51.174;4.160;2024-03-02T10:27:08;11.70;99.90
18777;DHT22;9517;51.174;4.160;2024-03-02T10:29:41;12.00;99.90
18777;DHT22;9517;51.174;4.160;2024-03-02T10:32:18;11.90;99.90
18777;DHT22;9517;51.174;4.160;2024-03-02T10:34:50;12.10;99.90
18777;DHT22;9517;51.174;4.160;2024-03-02T10:37:21;12.30;99.90
18777;DHT22;9517;51.174;4.160;2024-03-02T10:39:48;12.10;99.90
18777;DHT22;9517;51.174;4.160;2024-03-02T10:42:16;12.20;99.90
18777;DHT22;9517;51.174;4.160;2024-03-02T10:44:46;12.10;99.90
18777;DHT22;9517;51.174;4.160;2024-03-02T10:47:16;12.10;99.90
18777;DHT22;9517;51.174;4.160;2024-03-02T10:49:47;12.20;99.90
18777;DHT22;9517;51.174;4.160;2024-03-02T10:52:18;12.40;99.90
18777;DHT22;9517;51.174;4.160;2024-03-02T10:54:45;12.30;99.90
18777;DHT22;9517;51.174;4.160;2024-03-02T10:57:14;12.30;99.90
18777;DHT22;9517;51.174;4.160;2024-03-02T10:59:50;12.20;99.90
18777;DHT22;9517;51.174;4.160;2024-03-02T11:02:21;12.20;99.90
18777;DHT22;9517;51.174;4.160;2024-03-02T11:04:50;12.50;99.90
18777;DHT22;9517;51.174;4.160;2024-03-02T11:07:20;12.70;99.90
18777;DHT22;9517;51.174;4.160;2024-03-02T11:09:53;12.70;99.90
18777;DHT22;9517;51.174;4.160;2024-03-02T11:12:28;12.90;99.90
18777;DHT22;9517;51.174;4.160;2024-03-02T11:14:58;13.00;99.90
18777;DHT22;9517;51.174;4.160;2024-03-02T11:17:26;12.80;99.90
18777;DHT22;9517;51.174;4.160;2024-03-02T11:19:53;12.80;99.90
18777;DHT22;9517;51.174;4.160;2024-03-02T11:22:21;13.10;99.90
18777;DHT22;9517;51.174;4.160;2024-03-02T11:24:48;13.70;99.90
18777;DHT22;9517;51.174;4.160;2024-03-02T11:30:51;14.80;99.90
18777;DHT22;9517;51.174;4.160;2024-03-02T11:33:32;15.40;99.90
18777;DHT22;9517;51.174;4.160;2024-03-02T11:36:00;14.90;99.90
18777;DHT22;9517;51.174;4.160;2024-03-02T11:38:31;14.70;99.90
18777;DHT22;9517;51.174;4.160;2024-03-02T11:54:56;14.60;99.90
18777;DHT22;9517;51.174;4.160;2024-03-02T11:57:54;13.80;99.90
18777;DHT22;9517;51.174;4.160;2024-03-02T12:05:37;13.20;99.90
18777;DHT22;9517;51.174;4.160;2024-03-02T12:07:26;13.20;99.90
18777;DHT22;9517;51.174;4.160;2024-03-02T12:10:01;13.20;99.90
18777;DHT22;9517;51.174;4.160;2024-03-02T12:12:41;13.30;99.90
18777;DHT22;9517;51.174;4.160;2024-03-02T12:15:26;13.20;99.90
18777;DHT22;9517;51.174;4.160;2024-03-02T12:21:17;12.90;99.90
18777;DHT22;9517;51.174;4.160;2024-03-02T12:23:47;12.80;99.90
18777;DHT22;9517;51.174;4.160;2024-03-02T12:26:17;12.80;99.90
18777;DHT22;9517;51.174;4.160;2024-03-02T12:28:44;12.80;99.90
18777;DHT22;9517;51.174;4.160;2024-03-02T12:31:13;12.80;99.90
18777;DHT22;9517;51.174;4.160;2024-03-02T12:33:41;12.50;99.90
18777;DHT22;9517;51.174;4.160;2024-03-02T12:36:09;12.50;99.90
18777;DHT22;9517;51.174;4.160;2024-03-02T12:38:37;12.70;99.90
18777;DHT22;9517;51.174;4.160;2024-03-02T12:41:09;12.70;99.90
18777;DHT22;9517;51.174;4.160;2024-03-02T12:43:39;13.00;99.90
18777;DHT22;9517;51.174;4.160;2024-03-02T12:46:06;13.00;99.90
18777;DHT22;9517;51.174;4.160;2024-03-02T12:48:34;13.00;99.90
18777;DHT22;9517;51.174;4.160;2024-03-02T12:51:01;13.20;99.90
18777;DHT22;9517;51.174;4.160;2024-03-02T12:53:29;13.40;99.90
18777;DHT22;9517;51.174;4.160;2024-03-02T12:55:56;13.80;99.90
18777;DHT22;9517;51.174;4.160;2024-03-02T12:58:23;14.10;99.90
18777;DHT22;9517;51.174;4.160;2024-03-02T13:01:08;14.20;99.90
18777;DHT22;9517;51.174;4.160;2024-03-02T13:03:36;13.90;99.90
18777;DHT22;9517;51.174;4.160;2024-03-02T13:06:05;13.60;99.90
18777;DHT22;9517;51.174;4.160;2024-03-02T13:08:33;13.50;99.90
18777;DHT22;9517;51.174;4.160;2024-03-02T13:11:01;13.30;99.90
18777;DHT22;9517;51.174;4.160;2024-03-02T13:13:30;13.20;99.90
18777;DHT22;9517;51.174;4.160;2024-03-02T13:15:58;13.30;99.90
18777;DHT22;9517;51.174;4.160;2024-03-02T13:18:28;13.20;99.90
18777;DHT22;9517;51.174;4.160;2024-03-02T13:20:56;13.10;99.90
18777;DHT22;9517;51.174;4.160;2024-03-02T13:23:23;13.00;99.90
18777;DHT22;9517;51.174;4.160;2024-03-02T13:25:50;13.00;99.90
18777;DHT22;9517;51.174;4.160;2024-03-02T13:28:18;12.90;99.90
18777;DHT22;9517;51.174;4.160;2024-03-02T13:30:45;13.10;99.90
18777;DHT22;9517;51.174;4.160;2024-03-02T13:33:12;13.30;99.90
18777;DHT22;9517;51.174;4.160;2024-03-02T13:35:41;13.50;99.90
18777;DHT22;9517;51.174;4.160;2024-03-02T13:38:08;13.30;99.90
18777;DHT22;9517;51.174;4.160;2024-03-02T13:40:35;13.20;99.90
18777;DHT22;9517;51.174;4.160;2024-03-02T13:43:03;13.00;99.90
18777;DHT22;9517;51.174;4.160;2024-03-02T13:45:30;12.90;99.90
18777;DHT22;9517;51.174;4.160;2024-03-02T13:47:57;12.90;99.90
18777;DHT22;9517;51.174;4.160;2024-03-02T13:50:25;12.80;99.90
18777;DHT22;9517;51.174;4.160;2024-03-02T13:52:53;12.70;99.90
18777;DHT22;9517;51.174;4.160;2024-03-02T13:55:20;12.60;99.90
18777;DHT22;9517;51.174;4.160;2024-03-02T13:57:48;12.40;99.90
18777;DHT22;9517;51.174;4.160;2024-03-02T14:00:16;12.30;99.90
18777;DHT22;9517;51.174;4.160;2024-03-02T14:02:44;12.30;99.90
18777;DHT22;9517;51.174;4.160;2024-03-02T14:05:15;12.40;99.90
18777;DHT22;9517;51.174;4.160;2024-03-02T14:07:42;12.40;99.90
18777;DHT22;9517;51.174;4.160;2024-03-02T14:10:11;12.40;99.90
18777;DHT22;9517;51.174;4.160;2024-03-02T14:12:40;12.40;99.90
18777;DHT22;9517;51.174;4.160;2024-03-02T14:15:08;12.50;99.90
18777;DHT22;9517;51.174;4.160;2024-03-02T14:17:35;12.50;99.90
18777;DHT22;9517;51.174;4.160;2024-03-02T14:20:04;12.60;99.90
18777;DHT22;9517;51.174;4.160;2024-03-02T14:22:32;12.60;99.90
18777;DHT22;9517;51.174;4.160;2024-03-02T14:25:00;12.80;99.90
18777;DHT22;9517;51.174;4.160;2024-03-02T14:27:29;12.70;99.90
18777;DHT22;9517;51.174;4.160;2024-03-02T14:29:57;12.50;99.90
18777;DHT22;9517;51.174;4.160;2024-03-02T14:32:25;12.30;99.90
18777;DHT22;9517;51.174;4.160;2024-03-02T14:34:52;12.40;99.90
18777;DHT22;9517;51.174;4.160;2024-03-02T14:37:20;12.30;99.90
18777;DHT22;9517;51.174;4.160;2024-03-02T14:39:47;12.30;99.90
18777;DHT22;9517;51.174;4.160;2024-03-02T14:42:14;12.10;99.90
18777;DHT22;9517;51.174;4.160;2024-03-02T14:44:47;12.10;99.90
18777;DHT22;9517;51.174;4.160;2024-03-02T14:47:14;12.20;99.90
18777;DHT22;9517;51.174;4.160;2024-03-02T14:49:43;12.00;99.90
18777;DHT22;9517;51.174;4.160;2024-03-02T14:52:10;12.00;99.90
18777;DHT22;9517;51.174;4.160;2024-03-02T14:54:38;11.80;99.90
18777;DHT22;9517;51.174;4.160;2024-03-02T14:57:05;11.70;99.90
18777;DHT22;9517;51.174;4.160;2024-03-02T14:59:33;11.50;99.90
18777;DHT22;9517;51.174;4.160;2024-03-02T15:02:08;11.40;99.90
18777;DHT22;9517;51.174;4.160;2024-03-02T15:04:52;11.40;99.90
18777;DHT22;9517;51.174;4.160;2024-03-02T15:07:20;11.50;99.90
18777;DHT22;9517;51.174;4.160;2024-03-02T15:09:47;11.60;99.90
18777;DHT22;9517;51.174;4.160;2024-03-02T15:12:16;11.60;99.90
18777;DHT22;9517;51.174;4.160;2024-03-02T15:14:43;11.60;99.90
18777;DHT22;9517;51.174;4.160;2024-03-02T15:17:14;11.50;99.90
18777;DHT22;9517;51.174;4.160;2024-03-02T15:19:42;11.50;99.90
18777;DHT22;9517;51.174;4.160;2024-03-02T15:22:10;11.50;99.90
18777;DHT22;9517;51.174;4.160;2024-03-02T15:24:38;11.50;99.90
18777;DHT22;9517;51.174;4.160;2024-03-02T15:27:06;11.30;99.90
18777;DHT22;9517;51.174;4.160;2024-03-02T15:29:34;11.20;99.90
18777;DHT22;9517;51.174;4.160;2024-03-02T15:32:01;11.20;99.90
18777;DHT22;9517;51.174;4.160;2024-03-02T15:34:32;11.10;99.90
18777;DHT22;9517;51.174;4.160;2024-03-02T15:36:59;11.10;99.90
18777;DHT22;9517;51.174;4.160;2024-03-02T15:39:26;11.00;99.90
18777;DHT22;9517;51.174;4.160;2024-03-02T15:41:53;11.10;99.90
18777;DHT22;9517;51.174;4.160;2024-03-02T15:44:21;11.20;99.90
18777;DHT22;9517;51.174;4.160;2024-03-02T15:46:48;11.20;99.90
18777;DHT22;9517;51.174;4.160;2024-03-02T15:49:15;11.30;99.90
18777;DHT22;9517;51.174;4.160;2024-03-02T15:51:44;11.30;99.90
18777;DHT22;9517;51.174;4.160;2024-03-02T15:54:13;11.40;99.90
18777;DHT22;9517;51.174;4.160;2024-03-02T15:56:42;11.50;99.90
18777;DHT22;9517;51.174;4.160;2024-03-02T15:59:10;11.60;99.90
18777;DHT22;9517;51.174;4.160;2024-03-02T16:01:37;11.70;99.90
18777;DHT22;9517;51.174;4.160;2024-03-02T16:04:04;11.70;99.90
18777;DHT22;9517;51.174;4.160;2024-03-02T16:06:31;11.70;99.90
18777;DHT22;9517;51.174;4.160;2024-03-02T16:09:00;11.60;99.90
18777;DHT22;9517;51.174;4.160;2024-03-02T16:11:27;11.60;99.90
18777;DHT22;9517;51.174;4.160;2024-03-02T16:13:55;11.70;99.90
18777;DHT22;9517;51.174;4.160;2024-03-02T16:16:31;11.70;99.90
18777;DHT22;9517;51.174;4.160;2024-03-02T16:18:58;11.60;99.90
18777;DHT22;9517;51.174;4.160;2024-03-02T16:21:26;11.60;99.90
18777;DHT22;9517;51.174;4.160;2024-03-02T16:23:53;11.50;99.90
18777;DHT22;9517;51.174;4.160;2024-03-02T16:26:22;11.50;99.90
18777;DHT22;9517;51.174;4.160;2024-03-02T16:28:49;11.50;99.90
18777;DHT22;9517;51.174;4.160;2024-03-02T16:31:16;11.50;99.90